createdAt,value
2023-04-23T00:02:23.128Z,11.48
2023-04-23T00:04:53.100Z,9.37
2023-04-23T00:07:24.325Z,11.63
2023-04-23T00:09:56.281Z,10.15
2023-04-23T00:12:23.704Z,11.00
2023-04-23T00:14:51.181Z,12.77
2023-04-23T00:17:18.487Z,10.48
2023-04-23T00:19:46.308Z,11.07
2023-04-23T00:22:23.284Z,11.52
2023-04-23T00:24:50.462Z,11.82
2023-04-23T00:27:18.369Z,12.82
2023-04-23T00:29:46.541Z,10.77
2023-04-23T00:32:15.084Z,11.93
2023-04-23T00:34:42.486Z,10.30
2023-04-23T00:37:09.896Z,9.23
2023-04-23T00:39:38.870Z,10.52
2023-04-23T00:42:11.680Z,9.98
2023-04-23T00:44:40.346Z,10.30
2023-04-23T00:47:08.146Z,11.05
2023-04-23T00:49:36.648Z,8.88
2023-04-23T00:52:04.314Z,10.30
2023-04-23T00:54:31.426Z,9.88
2023-04-23T00:56:59.677Z,12.38
2023-04-23T00:59:28.318Z,10.23
2023-04-23T01:01:56.341Z,10.80
2023-04-23T01:04:24.836Z,12.55
2023-04-23T01:06:51.984Z,8.00
2023-04-23T01:09:19.158Z,11.00
2023-04-23T01:11:49.064Z,10.77
2023-04-23T01:14:16.598Z,10.80
2023-04-23T01:16:43.868Z,10.68
2023-04-23T01:19:11.902Z,10.75
2023-04-23T01:21:41.741Z,7.85
2023-04-23T01:24:10.005Z,8.23
2023-04-23T01:26:37.082Z,9.90
2023-04-23T01:29:04.249Z,8.13
2023-04-23T01:31:31.850Z,8.55
2023-04-23T01:34:00.445Z,8.50
2023-04-23T01:36:28.154Z,8.10
2023-04-23T01:38:55.388Z,9.98
2023-04-23T01:41:23.027Z,8.70
2023-04-23T01:43:50.373Z,9.45
2023-04-23T01:46:17.742Z,10.63
2023-04-23T01:48:45.044Z,7.95
2023-04-23T01:51:12.153Z,9.65
2023-04-23T01:53:39.304Z,9.52
2023-04-23T01:56:09.977Z,8.40
2023-04-23T01:58:37.064Z,8.70
2023-04-23T02:01:04.186Z,8.35
2023-04-23T02:03:34.246Z,8.60
2023-04-23T02:06:01.796Z,9.57
2023-04-23T02:08:29.165Z,9.70
2023-04-23T02:10:56.326Z,8.15
2023-04-23T02:13:23.559Z,7.80
2023-04-23T02:15:50.735Z,6.65
2023-04-23T02:18:17.864Z,7.95
2023-04-23T02:20:45.005Z,7.43
2023-04-23T02:23:12.551Z,7.85
2023-04-23T02:25:39.798Z,7.50
2023-04-23T02:28:07.870Z,6.82
2023-04-23T02:30:35.591Z,7.25
2023-04-23T02:33:03.860Z,8.90
2023-04-23T02:35:31.638Z,7.40
2023-04-23T02:37:58.768Z,7.85
2023-04-23T02:40:25.927Z,6.47
2023-04-23T02:42:52.983Z,6.95
2023-04-23T02:45:20.119Z,7.35
2023-04-23T02:47:47.229Z,7.72
2023-04-23T02:50:14.370Z,7.88
2023-04-23T02:52:41.462Z,8.68
2023-04-23T02:55:09.860Z,8.10
2023-04-23T02:57:37.243Z,7.25
2023-04-23T03:00:07.341Z,7.75
2023-04-23T03:05:01.535Z,6.22
2023-04-23T03:07:28.642Z,8.18
2023-04-23T03:09:55.798Z,6.07
2023-04-23T03:12:22.916Z,8.07
2023-04-23T03:14:49.945Z,7.95
2023-04-23T03:17:17.024Z,6.70
2023-04-23T03:19:44.185Z,6.75
2023-04-23T03:22:11.404Z,5.82
2023-04-23T03:24:38.608Z,6.93
2023-04-23T03:27:05.768Z,8.05
2023-04-23T03:29:32.808Z,6.13
2023-04-23T03:31:59.912Z,7.35
2023-04-23T03:34:27.007Z,6.18
2023-04-23T03:36:54.073Z,5.65
2023-04-23T03:39:21.334Z,5.88
2023-04-23T03:41:48.497Z,5.95
2023-04-23T03:44:15.545Z,6.20
2023-04-23T03:46:42.559Z,7.43
2023-04-23T03:49:09.621Z,5.65
2023-04-23T03:51:36.735Z,6.25
2023-04-23T03:54:03.894Z,6.28
2023-04-23T03:56:31.011Z,6.10
2023-04-23T03:58:58.051Z,6.35
2023-04-23T04:01:25.131Z,5.93
2023-04-23T04:03:52.480Z,5.47
2023-04-23T04:06:19.769Z,5.55
2023-04-23T04:08:46.836Z,7.38
2023-04-23T04:11:14.025Z,5.45
2023-04-23T04:13:41.088Z,5.32
2023-04-23T04:16:08.405Z,5.85
2023-04-23T04:18:35.556Z,5.18
2023-04-23T04:21:02.651Z,4.90
2023-04-23T04:23:30.139Z,5.43
2023-04-23T04:25:57.867Z,6.00
2023-04-23T04:28:25.407Z,5.20
2023-04-23T04:30:57.707Z,6.28
2023-04-23T04:33:26.059Z,6.13
2023-04-23T04:35:55.016Z,5.38
2023-04-23T04:38:22.495Z,5.53
2023-04-23T04:40:49.603Z,5.78
2023-04-23T04:43:17.360Z,4.97
2023-04-23T04:45:45.025Z,5.25
2023-04-23T04:48:12.082Z,5.78
2023-04-23T04:50:39.210Z,5.13
2023-04-23T04:53:06.302Z,5.53
2023-04-23T04:55:33.322Z,4.93
2023-04-23T04:58:00.475Z,4.82
2023-04-23T05:00:29.783Z,4.22
2023-04-23T05:02:58.768Z,4.95
2023-04-23T05:05:27.562Z,4.80
2023-04-23T05:07:55.117Z,4.82
2023-04-23T05:10:22.264Z,4.43
2023-04-23T05:12:49.420Z,5.03
2023-04-23T05:15:16.650Z,5.90
2023-04-23T05:17:44.105Z,4.63
2023-04-23T05:20:11.782Z,4.57
2023-04-23T05:22:41.471Z,4.47
2023-04-23T05:25:09.673Z,4.95
2023-04-23T05:27:36.747Z,4.53
2023-04-23T05:30:06.094Z,4.13
2023-04-23T05:32:33.399Z,4.90
2023-04-23T05:35:02.863Z,5.15
2023-04-23T05:37:30.882Z,4.63
2023-04-23T05:39:58.461Z,3.97
2023-04-23T05:42:25.630Z,3.67
2023-04-23T05:44:52.847Z,5.82
2023-04-23T05:47:20.024Z,5.20
2023-04-23T05:49:47.171Z,3.67
2023-04-23T05:52:14.516Z,4.35
2023-04-23T05:54:42.979Z,5.03
2023-04-23T05:57:11.114Z,3.75
2023-04-23T05:59:38.112Z,4.57
2023-04-23T06:02:05.371Z,3.92
2023-04-23T06:04:32.690Z,3.70
2023-04-23T06:06:59.935Z,3.78
2023-04-23T06:09:27.012Z,4.45
2023-04-23T06:11:54.422Z,3.92
2023-04-23T06:14:21.532Z,4.30
2023-04-23T06:16:48.604Z,4.35
2023-04-23T06:19:15.725Z,4.07
2023-04-23T06:21:42.773Z,5.00
2023-04-23T06:24:09.872Z,4.43
2023-04-23T06:26:36.935Z,4.30
2023-04-23T06:29:03.973Z,3.47
2023-04-23T06:31:31.198Z,4.65
2023-04-23T06:33:58.402Z,4.00
2023-04-23T06:36:25.587Z,4.10
2023-04-23T06:38:52.695Z,4.07
2023-04-23T06:41:20.361Z,3.60
2023-04-23T06:43:48.469Z,3.70
2023-04-23T06:46:15.759Z,4.68
2023-04-23T06:48:42.983Z,4.60
2023-04-23T06:51:10.109Z,4.13
2023-04-23T06:53:37.582Z,4.25
2023-04-23T06:56:04.837Z,4.47
2023-04-23T06:58:32.395Z,4.70
2023-04-23T07:01:07.658Z,4.10
2023-04-23T07:03:36.536Z,4.05
2023-04-23T07:06:04.158Z,4.22
2023-04-23T07:08:32.022Z,4.15
2023-04-23T07:10:59.173Z,3.50
2023-04-23T07:13:26.636Z,4.40
2023-04-23T07:15:53.710Z,3.97
2023-04-23T07:18:20.887Z,3.42
2023-04-23T07:20:47.930Z,3.35
2023-04-23T07:23:15.230Z,5.25
2023-04-23T07:25:42.348Z,4.13
2023-04-23T07:28:09.500Z,3.50
2023-04-23T07:30:36.782Z,3.38
2023-04-23T07:33:04.028Z,5.60
2023-04-23T07:35:31.153Z,3.22
2023-04-23T07:37:58.450Z,3.00
2023-04-23T07:40:25.855Z,3.40
2023-04-23T07:42:52.994Z,3.42
2023-04-23T07:45:20.509Z,3.30
2023-04-23T07:47:50.138Z,3.30
2023-04-23T07:50:20.252Z,3.25
2023-04-23T07:52:47.583Z,3.40
2023-04-23T07:55:14.670Z,3.90
2023-04-23T07:57:41.714Z,3.85
2023-04-23T08:00:09.627Z,3.42
2023-04-23T08:02:36.926Z,3.80
2023-04-23T08:05:04.413Z,3.38
2023-04-23T08:07:31.583Z,3.40
2023-04-23T08:10:03.132Z,2.80
2023-04-23T08:12:31.098Z,4.15
2023-04-23T08:14:58.346Z,3.25
2023-04-23T08:17:25.824Z,3.60
2023-04-23T08:19:52.927Z,3.22
2023-04-23T08:22:20.408Z,3.72
2023-04-23T08:24:48.120Z,3.30
2023-04-23T08:27:15.315Z,4.13
2023-04-23T08:29:42.710Z,3.13
2023-04-23T08:32:09.893Z,3.55
2023-04-23T08:34:37.295Z,3.83
2023-04-23T08:37:05.060Z,3.40
2023-04-23T08:39:33.380Z,3.47
2023-04-23T08:42:10.342Z,3.53
2023-04-23T08:44:38.497Z,3.42
2023-04-23T08:47:07.608Z,2.80
2023-04-23T08:49:35.781Z,2.95
2023-04-23T08:52:16.127Z,3.42
2023-04-23T08:54:48.219Z,3.35
2023-04-23T08:57:17.749Z,3.30
2023-04-23T08:59:49.256Z,2.90
2023-04-23T09:02:18.081Z,3.58
2023-04-23T09:04:50.882Z,2.75
2023-04-23T09:07:19.310Z,3.03
2023-04-23T09:09:46.462Z,3.20
2023-04-23T09:12:13.563Z,3.30
2023-04-23T09:14:40.977Z,3.58
2023-04-23T09:17:08.323Z,2.90
2023-04-23T09:19:38.427Z,2.90
2023-04-23T09:22:07.915Z,2.92
2023-04-23T09:24:35.383Z,3.33
2023-04-23T09:27:03.906Z,2.63
2023-04-23T09:29:31.420Z,3.15
2023-04-23T09:32:11.959Z,2.63
2023-04-23T09:34:39.354Z,4.13
2023-04-23T09:37:11.232Z,3.40
2023-04-23T09:39:40.322Z,2.90
2023-04-23T09:42:09.964Z,3.53
2023-04-23T09:44:37.072Z,2.65
2023-04-23T09:47:12.408Z,3.65
2023-04-23T09:49:50.015Z,2.95
2023-04-23T09:52:18.295Z,3.15
2023-04-23T09:54:46.851Z,2.67
2023-04-23T09:57:14.432Z,2.90
2023-04-23T09:59:48.809Z,3.10
2023-04-23T10:02:19.184Z,3.78
2023-04-23T10:04:56.338Z,3.35
2023-04-23T10:07:27.941Z,3.03
2023-04-23T10:09:55.521Z,2.90
2023-04-23T10:14:54.368Z,2.50
2023-04-23T10:17:21.572Z,3.10
2023-04-23T10:19:50.382Z,2.40
2023-04-23T10:22:21.880Z,2.38
2023-04-23T10:24:56.515Z,2.55
2023-04-23T10:27:40.377Z,2.60
2023-04-23T10:30:15.264Z,2.80
2023-04-23T10:32:44.204Z,3.50
2023-04-23T10:35:11.358Z,2.92
2023-04-23T10:37:38.926Z,2.90
2023-04-23T10:40:11.757Z,3.10
2023-04-23T10:42:40.929Z,2.20
2023-04-23T10:45:23.476Z,2.92
2023-04-23T10:47:53.265Z,2.67
2023-04-23T10:50:29.081Z,2.40
2023-04-23T10:52:58.026Z,2.47
2023-04-23T10:55:28.075Z,2.35
2023-04-23T10:58:04.469Z,2.08
2023-04-23T11:00:46.207Z,2.33
2023-04-23T11:03:43.493Z,2.38
2023-04-23T11:06:39.473Z,2.47
2023-04-23T11:09:46.670Z,2.33
2023-04-23T11:12:33.747Z,2.17
2023-04-23T11:15:14.274Z,2.28
2023-04-23T11:18:01.775Z,2.17
2023-04-23T11:20:29.015Z,2.35
2023-04-23T11:22:56.381Z,2.30
2023-04-23T11:25:28.455Z,2.40
2023-04-23T11:27:58.670Z,2.05
2023-04-23T11:32:56.261Z,1.95
2023-04-23T11:35:28.446Z,2.70
2023-04-23T11:37:56.610Z,2.58
2023-04-23T11:40:24.496Z,2.10
2023-04-23T11:42:55.335Z,3.45
2023-04-23T11:45:26.105Z,2.35
2023-04-23T11:47:58.399Z,2.40
2023-04-23T11:50:33.189Z,2.40
2023-04-23T11:53:09.088Z,2.20
2023-04-23T11:55:36.544Z,2.53
2023-04-23T11:58:04.144Z,2.30
2023-04-23T12:00:31.273Z,2.33
2023-04-23T12:03:00.322Z,2.40
2023-04-23T12:05:37.073Z,2.63
2023-04-23T12:08:18.846Z,2.17
2023-04-23T12:10:48.210Z,2.53
2023-04-23T12:13:17.077Z,2.45
2023-04-23T12:15:53.399Z,1.98
2023-04-23T12:18:20.956Z,2.10
2023-04-23T12:20:48.017Z,1.85
2023-04-23T12:23:15.190Z,2.45
2023-04-23T12:25:42.542Z,2.22
2023-04-23T12:28:09.693Z,2.28
2023-04-23T12:30:44.839Z,2.20
2023-04-23T12:33:12.703Z,2.05
2023-04-23T12:35:45.858Z,1.95
2023-04-23T12:38:24.808Z,1.98
2023-04-23T12:40:53.441Z,2.30
2023-04-23T12:43:20.814Z,2.50
2023-04-23T12:45:48.256Z,1.88
2023-04-23T12:48:15.483Z,2.75
2023-04-23T12:50:42.921Z,1.70
2023-04-23T12:53:09.989Z,1.92
2023-04-23T12:55:39.116Z,2.10
2023-04-23T12:58:07.832Z,1.85
2023-04-23T13:00:35.215Z,2.33
2023-04-23T13:03:03.075Z,2.00
2023-04-23T13:05:30.334Z,2.40
2023-04-23T13:07:57.437Z,1.95
2023-04-23T13:10:24.523Z,2.00
2023-04-23T13:12:51.574Z,2.03
2023-04-23T13:15:20.195Z,2.45
2023-04-23T13:17:47.536Z,1.88
2023-04-23T13:20:14.645Z,1.55
2023-04-23T13:22:41.868Z,2.30
2023-04-23T13:25:09.329Z,1.92
2023-04-23T13:27:36.496Z,2.08
2023-04-23T13:30:03.882Z,1.70
2023-04-23T13:32:32.772Z,2.10
2023-04-23T13:35:04.193Z,1.75
2023-04-23T13:37:31.940Z,1.80
2023-04-23T13:39:59.108Z,2.30
2023-04-23T13:42:26.258Z,1.83
2023-04-23T13:44:53.408Z,2.10
2023-04-23T13:47:20.621Z,2.00
2023-04-23T13:49:48.449Z,1.73
2023-04-23T13:52:15.498Z,1.67
2023-04-23T13:54:42.624Z,1.80
2023-04-23T13:57:09.815Z,1.90
2023-04-23T13:59:36.875Z,1.80
2023-04-23T14:02:03.975Z,1.80
2023-04-23T14:04:31.178Z,2.05
2023-04-23T14:06:58.341Z,2.05
2023-04-23T14:09:25.497Z,1.58
2023-04-23T14:11:52.645Z,1.60
2023-04-23T14:14:19.816Z,1.80
2023-04-23T14:16:46.935Z,1.80
2023-04-23T14:19:13.982Z,1.92
2023-04-23T14:21:41.865Z,1.92
2023-04-23T14:24:17.003Z,3.15
2023-04-23T14:26:49.375Z,1.70
2023-04-23T14:29:30.436Z,1.95
2023-04-23T14:31:57.494Z,1.48
2023-04-23T14:34:24.596Z,1.80
2023-04-23T14:36:53.324Z,1.52
2023-04-23T14:39:22.930Z,2.00
2023-04-23T14:41:50.188Z,4.28
2023-04-23T14:44:17.315Z,1.73
2023-04-23T14:46:44.533Z,2.03
2023-04-23T14:49:11.691Z,1.77
2023-04-23T14:51:38.875Z,2.63
2023-04-23T14:54:06.424Z,1.63
2023-04-23T14:56:33.533Z,1.73
2023-04-23T14:59:00.681Z,1.50
2023-04-23T15:01:27.765Z,1.60
2023-04-23T15:03:55.031Z,1.77
2023-04-23T15:06:22.627Z,1.80
2023-04-23T15:08:49.739Z,1.70
2023-04-23T15:11:16.876Z,1.63
2023-04-23T15:13:50.825Z,1.50
2023-04-23T15:19:06.433Z,1.17
2023-04-23T15:21:33.682Z,1.65
2023-04-23T15:24:00.814Z,1.80
2023-04-23T15:26:28.296Z,1.58
2023-04-23T15:28:58.913Z,1.63
2023-04-23T15:31:26.061Z,1.73
2023-04-23T15:33:53.199Z,2.17
2023-04-23T15:36:20.255Z,1.48
2023-04-23T15:38:47.342Z,1.70
2023-04-23T15:41:14.423Z,1.38
2023-04-23T15:43:41.478Z,1.83
2023-04-23T15:46:08.993Z,1.60
2023-04-23T15:48:36.119Z,1.83
2023-04-23T15:51:03.374Z,1.50
2023-04-23T15:53:30.435Z,1.67
2023-04-23T15:55:57.757Z,1.52
2023-04-23T15:58:24.843Z,1.80
2023-04-23T16:00:52.045Z,1.50
2023-04-23T16:03:19.390Z,1.52
2023-04-23T16:05:48.425Z,1.30
2023-04-23T16:08:16.997Z,1.42
2023-04-23T16:10:44.227Z,1.50
2023-04-23T16:13:11.403Z,1.30
2023-04-23T16:15:38.634Z,3.58
2023-04-23T16:18:06.398Z,1.50
2023-04-23T16:20:33.662Z,1.52
2023-04-23T16:23:01.552Z,1.60
2023-04-23T16:25:28.703Z,1.50
2023-04-23T16:27:56.464Z,1.35
2023-04-23T16:30:23.988Z,1.70
2023-04-23T16:32:52.331Z,1.40
2023-04-23T16:35:19.465Z,1.75
2023-04-23T16:37:46.621Z,1.70
2023-04-23T16:40:15.863Z,1.65
2023-04-23T16:42:43.983Z,1.50
2023-04-23T16:45:11.630Z,2.00
2023-04-23T16:47:39.192Z,1.58
2023-04-23T16:50:07.041Z,1.40
2023-04-23T16:52:34.231Z,1.50
2023-04-23T16:55:01.498Z,1.63
2023-04-23T16:57:28.956Z,1.60
2023-04-23T16:59:56.928Z,1.58
2023-04-23T17:02:24.234Z,1.67
2023-04-23T17:04:52.260Z,1.45
2023-04-23T17:07:19.589Z,1.65
2023-04-23T17:09:46.710Z,1.45
2023-04-23T17:12:13.904Z,3.25
2023-04-23T17:14:41.302Z,1.58
2023-04-23T17:17:08.629Z,1.70
2023-04-23T17:19:36.653Z,1.60
2023-04-23T17:22:03.857Z,2.00
2023-04-23T17:24:31.042Z,1.88
2023-04-23T17:26:58.859Z,1.48
2023-04-23T17:29:25.973Z,1.58
2023-04-23T17:31:53.381Z,1.55
2023-04-23T17:34:20.526Z,1.60
2023-04-23T17:36:47.660Z,1.55
2023-04-23T17:39:19.961Z,1.58
2023-04-23T17:41:47.074Z,1.65
2023-04-23T17:44:14.257Z,1.48
2023-04-23T17:46:41.313Z,2.60
2023-04-23T17:49:08.504Z,1.80
2023-04-23T17:51:35.726Z,1.73
2023-04-23T17:54:02.843Z,1.38
2023-04-23T17:56:30.169Z,1.60
2023-04-23T17:58:57.284Z,1.45
2023-04-23T18:01:24.546Z,1.60
2023-04-23T18:03:51.970Z,1.63
2023-04-23T18:06:19.323Z,1.88
2023-04-23T18:08:46.442Z,1.50
2023-04-23T18:11:13.623Z,1.50
2023-04-23T18:13:40.852Z,1.63
2023-04-23T18:16:08.076Z,1.50
2023-04-23T18:18:35.301Z,1.45
2023-04-23T18:21:02.431Z,1.67
2023-04-23T18:23:31.408Z,1.73
2023-04-23T18:26:01.701Z,1.67
2023-04-23T18:28:29.196Z,1.90
2023-04-23T18:31:02.410Z,1.65
2023-04-23T18:33:36.107Z,1.55
2023-04-23T18:36:11.539Z,1.75
2023-04-23T18:38:43.642Z,1.50
2023-04-23T18:41:10.793Z,1.52
2023-04-23T18:43:37.972Z,1.70
2023-04-23T18:46:05.114Z,1.40
2023-04-23T18:48:53.759Z,1.65
2023-04-23T18:51:26.933Z,1.17
2023-04-23T18:53:54.200Z,2.25
2023-04-23T18:56:21.354Z,1.63
2023-04-23T18:58:48.447Z,1.80
2023-04-23T19:01:15.656Z,1.88
2023-04-23T19:03:43.201Z,1.52
2023-04-23T19:06:10.437Z,1.52
2023-04-23T19:08:37.700Z,1.67
2023-04-23T19:11:05.437Z,1.70
2023-04-23T19:13:32.567Z,1.45
2023-04-23T19:16:00.342Z,1.80
2023-04-23T19:18:28.093Z,1.27
2023-04-23T19:20:56.950Z,1.48
2023-04-23T19:23:24.060Z,1.80
2023-04-23T19:25:51.960Z,1.58
2023-04-23T19:28:20.206Z,2.92
2023-04-23T19:30:47.366Z,1.80
2023-04-23T19:33:14.432Z,2.13
2023-04-23T19:35:42.866Z,1.95
2023-04-23T19:38:09.989Z,1.40
2023-04-23T19:40:37.128Z,2.13
2023-04-23T19:43:04.323Z,2.03
2023-04-23T19:45:32.483Z,1.50
2023-04-23T19:48:00.795Z,1.88
2023-04-23T19:50:27.935Z,2.10
2023-04-23T19:52:55.158Z,1.65
2023-04-23T19:55:27.093Z,1.75
2023-04-23T19:57:55.278Z,2.03
2023-04-23T20:00:25.160Z,1.60
2023-04-23T20:02:52.881Z,1.98
2023-04-23T20:05:20.220Z,1.70
2023-04-23T20:07:47.381Z,2.40
2023-04-23T20:10:16.219Z,1.77
2023-04-23T20:12:44.587Z,2.63
2023-04-23T20:15:12.676Z,1.83
2023-04-23T20:17:40.148Z,1.67
2023-04-23T20:20:07.748Z,2.17
2023-04-23T20:22:34.897Z,2.15
2023-04-23T20:25:05.410Z,2.63
2023-04-23T20:27:32.868Z,1.75
2023-04-23T20:29:59.969Z,2.10
2023-04-23T20:32:27.067Z,1.50
2023-04-23T20:34:54.563Z,2.10
2023-04-23T20:37:21.900Z,1.63
2023-04-23T20:39:50.085Z,1.80
2023-04-23T20:42:17.239Z,2.28
2023-04-23T20:44:47.064Z,2.10
2023-04-23T20:47:16.440Z,1.90
2023-04-23T20:49:43.781Z,3.30
2023-04-23T20:52:12.522Z,2.90
2023-04-23T20:54:39.614Z,2.30
2023-04-23T20:57:07.162Z,2.22
2023-04-23T20:59:34.422Z,2.63
2023-04-23T21:02:01.582Z,2.30
2023-04-23T21:04:28.799Z,2.30
2023-04-23T21:06:57.243Z,2.53
2023-04-23T21:09:24.522Z,2.50
2023-04-23T21:11:51.830Z,2.85
2023-04-23T21:14:18.962Z,2.30
2023-04-23T21:16:46.080Z,3.17
2023-04-23T21:19:13.192Z,2.40
2023-04-23T21:21:40.523Z,1.90
2023-04-23T21:24:07.658Z,2.58
2023-04-23T21:26:34.849Z,2.45
2023-04-23T21:29:01.970Z,2.53
2023-04-23T21:31:45.315Z,2.42
2023-04-23T21:34:12.583Z,2.15
2023-04-23T21:36:39.781Z,2.30
2023-04-23T21:39:08.261Z,2.47
2023-04-23T21:41:35.587Z,2.33
2023-04-23T21:44:02.762Z,2.15
2023-04-23T21:46:30.577Z,2.40
2023-04-23T21:48:58.449Z,2.53
2023-04-23T21:51:26.281Z,2.00
2023-04-23T21:53:53.404Z,4.32
2023-04-23T21:56:21.659Z,2.75
2023-04-23T21:58:48.804Z,2.38
2023-04-23T22:01:16.633Z,2.03
2023-04-23T22:03:46.608Z,2.33
2023-04-23T22:06:15.730Z,2.50
2023-04-23T22:08:44.844Z,2.33
2023-04-23T22:11:12.958Z,2.40
2023-04-23T22:13:40.074Z,3.33
2023-04-23T22:16:20.334Z,2.30
2023-04-23T22:18:51.990Z,1.92
2023-04-23T22:21:19.102Z,2.45
2023-04-23T22:23:46.376Z,2.42
2023-04-23T22:26:13.517Z,2.35
2023-04-23T22:28:40.594Z,2.28
2023-04-23T22:31:07.737Z,1.98
2023-04-23T22:33:35.208Z,2.13
2023-04-23T22:36:02.888Z,2.45
2023-04-23T22:38:30.009Z,2.10
2023-04-23T22:40:57.123Z,2.05
2023-04-23T22:43:24.140Z,2.30
2023-04-23T22:45:51.320Z,2.53
2023-04-23T22:48:18.452Z,2.40
2023-04-23T22:50:45.541Z,2.65
2023-04-23T22:53:12.681Z,1.88
2023-04-23T22:55:40.185Z,2.42
2023-04-23T22:58:07.323Z,2.42
2023-04-23T23:00:34.487Z,2.35
2023-04-23T23:03:01.863Z,2.15
2023-04-23T23:05:28.999Z,2.42
2023-04-23T23:07:56.738Z,2.58
2023-04-23T23:10:23.811Z,2.17
2023-04-23T23:12:50.931Z,2.13
2023-04-23T23:15:18.055Z,2.15
2023-04-23T23:17:45.251Z,2.05
2023-04-23T23:20:12.728Z,2.25
2023-04-23T23:22:39.873Z,2.72
2023-04-23T23:25:07.907Z,2.45
2023-04-23T23:27:35.073Z,2.33
2023-04-23T23:30:05.864Z,1.77
2023-04-23T23:32:33.796Z,1.85
2023-04-23T23:35:01.009Z,1.95
2023-04-23T23:37:28.360Z,2.25
2023-04-23T23:39:55.728Z,2.20
2023-04-23T23:42:22.885Z,2.47
2023-04-23T23:44:49.969Z,2.40
2023-04-23T23:47:17.269Z,2.40
2023-04-23T23:49:44.570Z,2.15
2023-04-23T23:52:11.878Z,2.40
2023-04-23T23:54:38.967Z,2.20
2023-04-23T23:57:06.100Z,2.05
2023-04-23T23:59:33.809Z,2.53
